Time;durP1;ratioP1;P1;durP2;ratioP2;P2;SDS_P1;SDS_P2;PMS_P1;PMS_P2;Temp;Humidity;BMP_temperature;BMP_pressure;BME280_temperature;BME280_humidity;BME280_pressure;Samples;Min_cycle;Max_cycle;Signal;HPM_P1;HPM_P2
2022/04/15 00:01:12;;;;;;;15.40;12.48;;;7.10;99.90;;;;;;5020276;28;20482;-56
2022/04/15 00:03:39;;;;;;;19.58;12.60;;;7.10;99.90;;;;;;5021254;28;20053;-54
2022/04/15 00:06:08;;;;;;;18.45;13.43;;;7.00;99.90;;;;;;5015265;28;20080;-56
2022/04/15 00:08:35;;;;;;;15.82;12.55;;;7.00;99.90;;;;;;5019234;28;20079;-56
2022/04/15 00:11:02;;;;;;;21.17;14.70;;;6.90;99.90;;;;;;5023025;28;20057;-57
2022/04/15 00:13:29;;;;;;;17.38;13.82;;;6.90;99.90;;;;;;5001233;28;20058;-56
2022/04/15 00:15:56;;;;;;;24.90;14.68;;;6.90;99.90;;;;;;5015787;28;20604;-57
2022/04/15 00:18:22;;;;;;;23.20;14.13;;;7.00;99.90;;;;;;5015482;28;20045;-58
2022/04/15 00:20:48;;;;;;;17.08;13.45;;;6.90;99.90;;;;;;5022466;28;20111;-58
2022/04/15 00:23:14;;;;;;;17.88;13.80;;;6.90;99.90;;;;;;5017368;28;20053;-58
2022/04/15 00:25:40;;;;;;;17.38;13.98;;;6.90;99.90;;;;;;5019820;28;20050;-58
2022/04/15 00:28:06;;;;;;;16.80;12.95;;;6.80;99.90;;;;;;5015698;28;20922;-56
2022/04/15 00:30:32;;;;;;;17.25;13.00;;;6.80;99.90;;;;;;5020248;28;20554;-57
2022/04/15 00:32:58;;;;;;;16.67;12.48;;;6.80;99.90;;;;;;5020717;28;20060;-56
2022/04/15 00:35:24;;;;;;;18.67;14.02;;;6.80;99.90;;;;;;5019672;28;20041;-56
2022/04/15 00:37:50;;;;;;;18.73;12.82;;;6.80;99.90;;;;;;5012232;28;20059;-57
2022/04/15 00:40:16;;;;;;;15.77;11.52;;;6.70;99.90;;;;;;5020958;28;20532;-57
2022/04/15 00:42:42;;;;;;;18.15;12.50;;;6.70;99.90;;;;;;5023735;28;20461;-56
2022/04/15 00:45:09;;;;;;;16.60;12.88;;;6.70;99.90;;;;;;5025680;28;20077;-57
2022/04/15 00:47:52;;;;;;;17.70;12.50;;;6.60;99.90;;;;;;5022191;28;20579;-57
2022/04/15 00:50:27;;;;;;;18.88;12.85;;;6.70;99.90;;;;;;5022761;28;20049;-57
2022/04/15 00:52:54;;;;;;;19.00;12.43;;;6.60;99.90;;;;;;5019619;28;20398;-57
2022/04/15 00:55:22;;;;;;;17.88;12.73;;;6.50;99.90;;;;;;5025032;28;20138;-56
2022/04/15 00:58:00;;;;;;;14.15;12.55;;;6.50;99.90;;;;;;5006928;28;20098;-57
2022/04/15 01:00:28;;;;;;;18.83;13.65;;;6.50;99.90;;;;;;5020923;28;20067;-57
2022/04/15 01:02:57;;;;;;;15.32;12.65;;;6.50;99.90;;;;;;5024532;28;20053;-57
2022/04/15 01:05:25;;;;;;;21.60;12.52;;;6.50;99.90;;;;;;5025202;28;20099;-58
2022/04/15 01:07:55;;;;;;;14.40;12.52;;;6.50;99.90;;;;;;5023089;28;20152;-57
2022/04/15 01:10:22;;;;;;;18.77;12.65;;;6.50;99.90;;;;;;5021033;28;20231;-57
2022/04/15 01:12:54;;;;;;;16.35;12.65;;;6.50;99.90;;;;;;5022902;28;20049;-57
2022/04/15 01:15:22;;;;;;;18.90;13.57;;;6.50;99.90;;;;;;5024932;28;20151;-57
2022/04/15 01:17:48;;;;;;;20.48;13.45;;;6.60;99.90;;;;;;5025050;28;20060;-57
2022/04/15 01:20:15;;;;;;;15.68;13.20;;;6.70;99.90;;;;;;5021851;28;20053;-57
2022/04/15 01:22:46;;;;;;;15.40;13.38;;;6.80;99.90;;;;;;5024696;28;20049;-57
2022/04/15 01:25:16;;;;;;;16.97;12.60;;;6.80;99.90;;;;;;4999673;28;20049;-57
2022/04/15 01:27:48;;;;;;;15.03;12.03;;;6.90;99.90;;;;;;5025499;28;20404;-57
2022/04/15 01:30:19;;;;;;;16.67;12.23;;;6.90;99.90;;;;;;5005725;28;20308;-58
2022/04/15 01:32:47;;;;;;;18.45;12.20;;;7.00;99.90;;;;;;5022973;28;20825;-58
2022/04/15 01:35:15;;;;;;;16.80;12.27;;;7.00;99.90;;;;;;5019984;28;20405;-59
2022/04/15 01:37:42;;;;;;;19.85;12.55;;;7.00;99.90;;;;;;5007587;28;22024;-58
2022/04/15 01:40:09;;;;;;;21.75;13.00;;;7.10;99.90;;;;;;5024487;28;20548;-58
2022/04/15 01:42:37;;;;;;;16.27;11.85;;;7.10;99.90;;;;;;5023811;28;20045;-58
2022/04/15 01:45:04;;;;;;;22.40;11.60;;;7.10;99.90;;;;;;5014755;28;20036;-58
2022/04/15 01:47:31;;;;;;;15.05;11.68;;;7.10;99.90;;;;;;4991451;28;20093;-57
2022/04/15 01:49:57;;;;;;;14.30;12.10;;;7.10;99.90;;;;;;5022847;28;20061;-57
2022/04/15 01:52:24;;;;;;;16.80;11.77;;;7.10;99.90;;;;;;5005886;28;20061;-57
2022/04/15 01:54:50;;;;;;;15.63;11.85;;;7.20;99.90;;;;;;5002459;28;20053;-57
2022/04/15 01:57:16;;;;;;;14.95;11.90;;;7.20;99.90;;;;;;5039011;28;20057;-57
2022/04/15 01:59:43;;;;;;;15.38;12.20;;;7.20;99.90;;;;;;5024932;28;20345;-57
2022/04/15 02:02:10;;;;;;;16.77;11.70;;;7.20;99.90;;;;;;4989960;28;20041;-57
2022/04/15 02:04:36;;;;;;;15.25;11.80;;;7.30;99.90;;;;;;5006668;28;20048;-58
2022/04/15 02:07:03;;;;;;;20.40;12.27;;;7.30;99.90;;;;;;5025645;28;20050;-57
2022/04/15 02:09:29;;;;;;;15.25;11.30;;;7.30;99.90;;;;;;5024585;28;20583;-58
2022/04/15 02:11:55;;;;;;;17.77;12.10;;;7.40;99.90;;;;;;5005787;28;20053;-57
2022/04/15 02:14:22;;;;;;;16.48;12.18;;;7.40;99.90;;;;;;5017071;28;20084;-57
2022/04/15 02:16:50;;;;;;;16.83;11.80;;;7.40;99.90;;;;;;5018160;28;20046;-57
2022/04/15 02:19:16;;;;;;;17.40;11.90;;;7.40;99.90;;;;;;5025299;28;20111;-57
2022/04/15 02:21:42;;;;;;;14.50;12.23;;;7.40;99.90;;;;;;5024061;28;20049;-58
2022/04/15 02:24:08;;;;;;;16.77;12.02;;;7.50;99.90;;;;;;5024873;28;20048;-61
2022/04/15 02:26:34;;;;;;;14.88;11.98;;;7.50;99.90;;;;;;5021033;28;20048;-56
2022/04/15 02:29:00;;;;;;;17.80;12.02;;;7.40;99.90;;;;;;5024898;28;20775;-57
2022/04/15 02:31:27;;;;;;;17.95;11.80;;;7.50;99.90;;;;;;5023647;28;20567;-58
2022/04/15 02:33:53;;;;;;;17.35;11.98;;;7.50;99.90;;;;;;5023658;28;20053;-57
2022/04/15 02:36:19;;;;;;;17.13;12.48;;;7.50;99.90;;;;;;4971558;28;20045;-58
2022/04/15 02:38:45;;;;;;;17.90;12.90;;;7.50;99.90;;;;;;5020628;28;20092;-57
2022/04/15 02:41:12;;;;;;;16.92;13.05;;;7.60;99.90;;;;;;5022618;28;20084;-58
2022/04/15 02:43:39;;;;;;;15.50;11.57;;;7.60;99.90;;;;;;5023060;28;20699;-58
2022/04/15 02:46:07;;;;;;;16.00;12.75;;;7.60;99.90;;;;;;5022310;28;20058;-59
2022/04/15 02:48:34;;;;;;;19.40;12.23;;;7.60;99.90;;;;;;5022316;28;20455;-58
2022/04/15 02:51:02;;;;;;;15.05;12.75;;;7.60;99.90;;;;;;5024184;28;20053;-58
2022/04/15 02:53:29;;;;;;;14.93;12.27;;;7.60;99.90;;;;;;5025922;28;20512;-57
2022/04/15 02:55:57;;;;;;;19.38;12.52;;;7.60;99.90;;;;;;5021875;28;20120;-57
2022/04/15 02:58:23;;;;;;;16.73;12.73;;;7.60;99.90;;;;;;4987357;28;20099;-57
2022/04/15 03:00:50;;;;;;;16.13;13.07;;;7.60;99.90;;;;;;5021949;28;20045;-58
2022/04/15 03:03:16;;;;;;;18.40;11.88;;;7.60;99.90;;;;;;5037402;28;20049;-57
2022/04/15 03:05:42;;;;;;;16.70;12.40;;;7.60;99.90;;;;;;5017997;28;20505;-58
2022/04/15 03:08:09;;;;;;;16.52;13.15;;;7.60;99.90;;;;;;5021198;28;20045;-58
2022/04/15 03:10:35;;;;;;;15.10;11.63;;;7.70;99.90;;;;;;5021612;28;20563;-57
2022/04/15 03:13:01;;;;;;;17.17;12.23;;;7.70;99.90;;;;;;5023619;28;20115;-57
2022/04/15 03:15:27;;;;;;;14.95;11.00;;;7.70;99.90;;;;;;5023504;28;20041;-57
2022/04/15 03:17:54;;;;;;;16.90;11.93;;;7.70;99.90;;;;;;5019991;28;20045;-58
2022/04/15 03:20:21;;;;;;;18.35;11.75;;;7.70;99.90;;;;;;5017896;28;20085;-58
2022/04/15 03:22:47;;;;;;;17.52;11.95;;;7.80;99.90;;;;;;5023924;28;20091;-58
2022/04/15 03:25:18;;;;;;;15.48;11.38;;;7.90;99.90;;;;;;5020486;28;20127;-58
2022/04/15 03:27:45;;;;;;;17.65;12.63;;;7.80;99.90;;;;;;5021113;28;20120;-58
2022/04/15 03:30:12;;;;;;;13.13;11.60;;;7.90;99.90;;;;;;5001263;28;20560;-57
2022/04/15 03:32:47;;;;;;;16.77;11.90;;;7.80;99.90;;;;;;5021336;28;20041;-58
2022/04/15 03:35:15;;;;;;;20.50;13.20;;;7.80;99.90;;;;;;5022844;28;20049;-58
2022/04/15 03:37:41;;;;;;;14.00;12.60;;;7.80;99.90;;;;;;5021093;28;20049;-58
2022/04/15 03:40:07;;;;;;;15.30;12.05;;;7.80;99.90;;;;;;5019527;28;20049;-58
2022/04/15 03:42:51;;;;;;;15.70;12.43;;;7.70;99.90;;;;;;5022519;28;20080;-57
2022/04/15 03:45:19;;;;;;;17.13;13.25;;;7.80;99.90;;;;;;5022880;28;20057;-56
2022/04/15 03:47:46;;;;;;;15.55;12.27;;;7.70;99.90;;;;;;5021561;28;20075;-57
2022/04/15 03:50:13;;;;;;;17.58;12.73;;;7.60;99.90;;;;;;5005364;28;20728;-57
2022/04/15 03:52:42;;;;;;;14.80;12.57;;;7.60;99.90;;;;;;5021666;28;20192;-56
2022/04/15 03:55:13;;;;;;;17.38;12.40;;;7.70;99.90;;;;;;5023150;28;20041;-58
2022/04/15 03:57:39;;;;;;;15.63;12.18;;;7.70;99.90;;;;;;5020647;28;20071;-57
2022/04/15 04:00:08;;;;;;;18.08;12.70;;;7.70;99.90;;;;;;5020985;28;20056;-58
2022/04/15 04:02:34;;;;;;;18.77;12.25;;;7.80;99.90;;;;;;5017970;28;20064;-58
2022/04/15 04:05:00;;;;;;;14.95;12.48;;;7.70;99.90;;;;;;5020848;28;20412;-57
2022/04/15 04:07:26;;;;;;;15.90;12.43;;;7.70;99.90;;;;;;5016863;28;20056;-58
2022/04/15 04:09:52;;;;;;;17.40;12.65;;;7.70;99.90;;;;;;5002930;28;20099;-58
2022/04/15 04:12:19;;;;;;;15.38;12.07;;;7.70;99.90;;;;;;5002551;28;20122;-57
2022/04/15 04:14:45;;;;;;;15.57;12.38;;;7.70;99.90;;;;;;5024305;28;20053;-57
2022/04/15 04:17:11;;;;;;;14.27;11.77;;;7.70;99.90;;;;;;5014921;28;20081;-57
2022/04/15 04:19:37;;;;;;;15.05;11.80;;;7.70;99.90;;;;;;5018962;28;20061;-57
2022/04/15 04:22:04;;;;;;;17.15;12.93;;;7.80;99.90;;;;;;5013260;28;20047;-57
2022/04/15 04:24:30;;;;;;;18.83;13.05;;;7.80;99.90;;;;;;5019744;28;20088;-57
2022/04/15 04:26:57;;;;;;;15.05;12.60;;;7.80;99.90;;;;;;5020896;28;20438;-57
2022/04/15 04:29:23;;;;;;;15.02;12.23;;;7.80;99.90;;;;;;5005635;28;20057;-57
2022/04/15 04:31:49;;;;;;;16.42;11.63;;;7.80;99.90;;;;;;5021765;28;20095;-57
2022/04/15 04:34:15;;;;;;;15.27;13.15;;;7.80;99.90;;;;;;5013817;28;20093;-57
2022/04/15 04:36:41;;;;;;;16.17;12.40;;;7.80;99.90;;;;;;4986558;28;20925;-57
2022/04/15 04:39:09;;;;;;;13.23;11.80;;;7.80;99.90;;;;;;5022359;28;20810;-58
2022/04/15 04:41:39;;;;;;;17.85;12.55;;;7.90;99.90;;;;;;5001100;28;20046;-57
2022/04/15 04:44:06;;;;;;;12.98;11.50;;;7.90;99.90;;;;;;5019158;28;20479;-57
2022/04/15 04:46:33;;;;;;;14.70;11.55;;;7.90;99.90;;;;;;5020316;28;20903;-57
2022/04/15 04:48:59;;;;;;;18.73;12.05;;;8.00;99.90;;;;;;5018707;28;20155;-57
2022/04/15 04:51:25;;;;;;;14.13;11.25;;;8.00;99.90;;;;;;5020978;28;20091;-57
2022/04/15 04:53:51;;;;;;;16.95;12.07;;;8.00;99.90;;;;;;5016188;28;20061;-57
2022/04/15 04:56:17;;;;;;;17.23;11.68;;;8.00;99.90;;;;;;4995742;28;20437;-57
2022/04/15 04:58:43;;;;;;;14.85;12.18;;;8.00;99.90;;;;;;4965999;28;20096;-54
2022/04/15 05:01:09;;;;;;;13.07;11.32;;;8.10;99.90;;;;;;5014164;28;20501;-57
2022/04/15 05:03:35;;;;;;;16.75;12.95;;;8.10;99.90;;;;;;5013769;28;20054;-58
2022/04/15 05:06:03;;;;;;;15.25;12.93;;;8.20;99.90;;;;;;4972123;28;20496;-58
2022/04/15 05:08:29;;;;;;;18.23;13.25;;;8.20;99.90;;;;;;5002168;28;20063;-58
2022/04/15 05:10:55;;;;;;;16.23;12.63;;;8.20;99.90;;;;;;5018232;28;20045;-57
2022/04/15 05:13:21;;;;;;;14.50;12.27;;;8.30;99.90;;;;;;5030872;28;20061;-58
2022/04/15 05:15:47;;;;;;;15.07;13.27;;;8.30;99.90;;;;;;5012727;28;20052;-58
2022/04/15 05:18:14;;;;;;;15.52;13.77;;;8.30;99.90;;;;;;5004424;28;20079;-58
2022/04/15 05:20:40;;;;;;;17.25;14.57;;;8.40;99.90;;;;;;5030643;28;20057;-58
2022/04/15 05:23:07;;;;;;;16.77;13.88;;;8.40;99.90;;;;;;5025076;28;20493;-58
2022/04/15 05:25:33;;;;;;;20.70;14.20;;;8.40;99.90;;;;;;5014716;28;20045;-58
2022/04/15 05:27:59;;;;;;;12.40;11.02;;;8.40;99.90;;;;;;5021904;28;20049;-58
2022/04/15 05:30:25;;;;;;;13.02;11.63;;;8.40;99.90;;;;;;5024564;28;20818;-58
2022/04/15 05:32:51;;;;;;;10.88;9.63;;;8.40;99.90;;;;;;5005799;28;20050;-58
2022/04/15 05:35:18;;;;;;;11.40;8.98;;;8.40;99.90;;;;;;5016762;28;20041;-58
2022/04/15 05:37:44;;;;;;;11.50;8.35;;;8.50;99.90;;;;;;5018508;28;20774;-57
2022/04/15 05:40:10;;;;;;;16.58;14.75;;;8.40;99.90;;;;;;5015716;28;20798;-57
2022/04/15 05:42:36;;;;;;;11.63;8.70;;;8.50;99.90;;;;;;5010504;28;20054;-58
2022/04/15 05:45:06;;;;;;;11.98;10.32;;;8.40;99.90;;;;;;5016802;28;20072;-58
2022/04/15 05:47:32;;;;;;;13.38;7.80;;;8.50;99.90;;;;;;5023154;28;20110;-58
2022/04/15 05:49:58;;;;;;;9.07;7.05;;;8.50;99.90;;;;;;5022542;28;20068;-58
2022/04/15 05:52:25;;;;;;;8.05;7.05;;;8.60;99.90;;;;;;5023534;28;20065;-58
2022/04/15 05:54:51;;;;;;;8.70;6.43;;;8.50;99.90;;;;;;4996749;28;20049;-58
2022/04/15 05:57:19;;;;;;;8.50;6.18;;;8.50;99.90;;;;;;5011732;28;20118;-59
2022/04/15 05:59:45;;;;;;;8.10;5.75;;;8.60;99.90;;;;;;5010785;28;20053;-58
2022/04/15 06:02:11;;;;;;;6.70;5.20;;;8.50;99.90;;;;;;4990516;28;20501;-58
2022/04/15 06:04:37;;;;;;;11.43;7.85;;;8.50;99.90;;;;;;4994685;28;20450;-58
2022/04/15 06:07:03;;;;;;;8.30;7.32;;;8.50;99.90;;;;;;5005256;28;20125;-58
2022/04/15 06:09:29;;;;;;;11.52;9.50;;;8.50;99.90;;;;;;4991126;28;20579;-58
2022/04/15 06:11:56;;;;;;;7.20;5.45;;;8.50;99.90;;;;;;5007895;28;20052;-58
2022/04/15 06:14:22;;;;;;;8.20;6.47;;;8.40;99.90;;;;;;5024740;28;20061;-57
2022/04/15 06:16:49;;;;;;;6.38;5.35;;;8.40;99.90;;;;;;5018962;28;20601;-58
2022/04/15 06:19:16;;;;;;;7.05;5.43;;;8.40;99.90;;;;;;5005780;28;20109;-58
2022/04/15 06:21:43;;;;;;;12.20;10.18;;;8.40;99.90;;;;;;5005702;28;20038;-58
2022/04/15 06:24:10;;;;;;;7.45;6.65;;;8.40;99.90;;;;;;5001494;28;20172;-57
2022/04/15 06:26:36;;;;;;;6.13;4.80;;;8.40;99.90;;;;;;5020062;28;20056;-58
2022/04/15 06:29:03;;;;;;;7.35;5.55;;;8.30;99.90;;;;;;5006338;28;20050;-58
2022/04/15 06:31:29;;;;;;;6.00;5.15;;;8.30;99.90;;;;;;5003809;28;20045;-58
2022/04/15 06:33:56;;;;;;;7.40;5.40;;;8.30;99.90;;;;;;5019931;28;20048;-58
2022/04/15 06:36:22;;;;;;;6.07;5.30;;;8.40;99.90;;;;;;5015289;28;20057;-58
2022/04/15 06:38:51;;;;;;;8.05;6.30;;;8.30;99.90;;;;;;5004771;28;20049;-58
2022/04/15 06:41:17;;;;;;;9.05;7.05;;;8.40;99.90;;;;;;5017614;28;20057;-58
2022/04/15 06:43:43;;;;;;;6.80;5.40;;;8.30;99.90;;;;;;5023884;28;20041;-58
2022/04/15 06:46:09;;;;;;;8.80;7.07;;;8.30;99.90;;;;;;5024224;28;20116;-57
2022/04/15 06:48:35;;;;;;;11.35;8.27;;;8.30;99.90;;;;;;5006411;28;20046;-58
2022/04/15 06:51:02;;;;;;;9.65;7.85;;;8.20;99.90;;;;;;5005876;28;20053;-57
2022/04/15 06:53:29;;;;;;;8.15;6.35;;;8.20;99.90;;;;;;5019688;28;20046;-58
2022/04/15 06:55:55;;;;;;;8.68;6.53;;;8.20;99.90;;;;;;5016405;28;20057;-58
2022/04/15 06:58:21;;;;;;;8.88;6.10;;;8.20;99.90;;;;;;5004837;28;20604;-58
2022/04/15 07:00:48;;;;;;;8.85;7.38;;;8.30;99.90;;;;;;5018060;28;20058;-58
2022/04/15 07:03:15;;;;;;;12.48;7.28;;;8.20;99.90;;;;;;5004734;28;20054;-59
2022/04/15 07:05:42;;;;;;;9.00;7.22;;;8.20;99.90;;;;;;5003127;28;20050;-58
2022/04/15 07:08:09;;;;;;;9.82;7.38;;;8.20;99.90;;;;;;5003036;28;20045;-57
2022/04/15 07:10:37;;;;;;;10.27;6.97;;;8.20;99.90;;;;;;5008388;28;20134;-58
2022/04/15 07:13:04;;;;;;;9.55;7.07;;;8.20;99.90;;;;;;5006117;28;20167;-57
2022/04/15 07:15:30;;;;;;;10.13;8.30;;;8.20;99.90;;;;;;5008775;28;20050;-57
2022/04/15 07:17:56;;;;;;;8.88;7.50;;;8.30;99.90;;;;;;5004009;28;20049;-58
2022/04/15 07:20:23;;;;;;;8.13;7.30;;;8.30;99.90;;;;;;5014594;28;20786;-57
2022/04/15 07:22:57;;;;;;;10.95;7.88;;;8.40;99.90;;;;;;5008742;28;20052;-57
2022/04/15 07:25:24;;;;;;;13.93;9.80;;;8.40;99.90;;;;;;5019780;28;20077;-57
2022/04/15 07:27:51;;;;;;;10.20;7.65;;;8.50;99.90;;;;;;5021192;28;20045;-57
2022/04/15 07:30:19;;;;;;;12.98;9.05;;;8.50;99.90;;;;;;5018126;28;20468;-57
2022/04/15 07:32:45;;;;;;;11.52;9.13;;;8.50;99.90;;;;;;5010158;28;20052;-57
2022/04/15 07:35:11;;;;;;;10.88;8.70;;;8.50;99.90;;;;;;5002491;28;20077;-57
2022/04/15 07:37:38;;;;;;;11.15;8.98;;;8.60;99.90;;;;;;5021594;28;20754;-57
2022/04/15 07:40:05;;;;;;;10.25;8.73;;;8.60;99.90;;;;;;5023705;28;20049;-57
2022/04/15 07:42:32;;;;;;;14.55;10.23;;;8.60;99.90;;;;;;5010670;28;20057;-56
2022/04/15 07:44:58;;;;;;;13.63;10.15;;;8.80;99.90;;;;;;5022565;28;20127;-57
2022/04/15 07:47:26;;;;;;;12.88;9.27;;;8.80;99.90;;;;;;5008495;28;20493;-57
2022/04/15 07:49:52;;;;;;;11.95;10.70;;;8.80;99.90;;;;;;5004852;28;20076;-57
2022/04/15 07:52:18;;;;;;;15.93;10.55;;;8.80;99.90;;;;;;5005587;28;20057;-57
2022/04/15 07:54:46;;;;;;;14.25;10.93;;;8.90;99.90;;;;;;5012910;28;20053;-58
2022/04/15 07:57:12;;;;;;;15.55;12.15;;;8.90;99.90;;;;;;5003447;28;20157;-57
2022/04/15 07:59:38;;;;;;;15.82;12.32;;;8.90;99.90;;;;;;5008422;28;20045;-57
2022/04/15 08:02:06;;;;;;;18.70;13.93;;;8.90;99.90;;;;;;5014816;28;20493;-57
2022/04/15 08:04:34;;;;;;;15.38;13.30;;;9.00;99.90;;;;;;5003678;28;20085;-56
2022/04/15 08:07:01;;;;;;;19.35;13.35;;;9.00;99.90;;;;;;5003244;28;20165;-58
2022/04/15 08:09:27;;;;;;;16.85;12.20;;;9.10;99.90;;;;;;5003340;28;20396;-58
2022/04/15 08:11:54;;;;;;;18.30;13.30;;;9.10;99.90;;;;;;5019211;28;20045;-58
2022/04/15 08:14:20;;;;;;;17.50;13.35;;;9.20;99.90;;;;;;5020396;28;20053;-58
2022/04/15 08:16:47;;;;;;;15.55;13.07;;;9.30;99.90;;;;;;5017063;28;20149;-58
2022/04/15 08:19:13;;;;;;;16.38;12.18;;;9.20;99.90;;;;;;5021014;28;20797;-58
2022/04/15 08:21:39;;;;;;;18.55;12.90;;;9.30;99.90;;;;;;5014400;28;20501;-58
2022/04/15 08:24:05;;;;;;;17.75;13.10;;;9.30;99.90;;;;;;5003355;28;20038;-58
2022/04/15 08:26:31;;;;;;;14.77;12.57;;;9.40;99.90;;;;;;5002857;28;20046;-57
2022/04/15 08:28:58;;;;;;;15.15;12.93;;;9.40;99.90;;;;;;4988943;28;20787;-57
2022/04/15 08:31:24;;;;;;;18.75;13.48;;;9.40;99.90;;;;;;5020865;28;20052;-58
2022/04/15 08:33:50;;;;;;;18.67;13.02;;;9.40;99.90;;;;;;5013448;28;20638;-59
2022/04/15 08:36:16;;;;;;;14.57;11.70;;;9.50;99.90;;;;;;4972018;28;20506;-58
2022/04/15 08:38:42;;;;;;;16.08;12.55;;;9.50;99.90;;;;;;5012358;28;20084;-57
2022/04/15 08:41:12;;;;;;;17.50;12.80;;;9.60;99.90;;;;;;5021547;28;20045;-58
2022/04/15 08:43:39;;;;;;;16.90;11.98;;;9.70;99.90;;;;;;5017349;28;20097;-57
2022/04/15 08:46:06;;;;;;;16.10;12.75;;;9.70;99.90;;;;;;5013220;28;20119;-57
2022/04/15 08:48:32;;;;;;;15.43;11.77;;;9.80;99.90;;;;;;5015992;28;20061;-58
2022/04/15 08:50:59;;;;;;;15.60;12.20;;;9.90;99.90;;;;;;5009799;28;20045;-58
2022/04/15 08:53:27;;;;;;;15.32;12.40;;;9.90;99.90;;;;;;5008086;28;20468;-57
2022/04/15 08:55:53;;;;;;;16.58;12.90;;;10.00;99.90;;;;;;5017671;28;20111;-56
2022/04/15 08:58:19;;;;;;;17.65;12.88;;;10.10;99.90;;;;;;5008823;28;20585;-58
2022/04/15 09:00:45;;;;;;;15.43;12.15;;;10.20;99.90;;;;;;5005598;28;20053;-59
2022/04/15 09:03:12;;;;;;;34.35;25.13;;;10.20;99.90;;;;;;5007594;28;20136;-56
2022/04/15 09:05:38;;;;;;;15.85;12.32;;;10.20;99.90;;;;;;4992537;28;20146;-57
2022/04/15 09:08:06;;;;;;;15.38;11.75;;;10.20;99.90;;;;;;5015599;28;20057;-58
2022/04/15 09:10:33;;;;;;;16.38;14.43;;;10.10;99.90;;;;;;5009097;28;20057;-57
2022/04/15 09:13:01;;;;;;;16.83;12.32;;;10.20;99.90;;;;;;5011766;28;20053;-57
2022/04/15 09:15:27;;;;;;;21.65;15.25;;;10.40;99.90;;;;;;4997319;28;20069;-57
2022/04/15 09:17:54;;;;;;;14.05;11.38;;;10.40;99.90;;;;;;5012008;28;20058;-57
2022/04/15 09:20:21;;;;;;;15.70;12.50;;;10.50;99.90;;;;;;5012277;28;20092;-56
2022/04/15 09:22:53;;;;;;;12.13;9.75;;;10.50;99.90;;;;;;5015271;28;20099;-57
2022/04/15 09:25:25;;;;;;;17.55;11.55;;;10.60;99.90;;;;;;5013444;28;20131;-56
2022/04/15 09:27:57;;;;;;;14.35;9.88;;;10.70;99.90;;;;;;5012545;28;20054;-57
2022/04/15 09:30:36;;;;;;;13.32;10.38;;;10.70;99.90;;;;;;5013375;28;20104;-57
2022/04/15 09:33:03;;;;;;;13.63;10.05;;;10.70;99.90;;;;;;5014270;28;20045;-58
2022/04/15 09:35:30;;;;;;;15.80;10.32;;;10.70;99.90;;;;;;5009457;28;20136;-58
2022/04/15 09:38:03;;;;;;;18.02;13.10;;;10.70;99.90;;;;;;5012209;28;20061;-57
2022/04/15 09:40:37;;;;;;;22.02;12.85;;;10.80;99.90;;;;;;5014306;28;20045;-59
2022/04/15 09:43:06;;;;;;;13.10;9.30;;;10.90;99.90;;;;;;5008171;28;20103;-58
2022/04/15 09:45:36;;;;;;;11.18;8.40;;;11.00;99.90;;;;;;5023695;28;20053;-59
2022/04/15 09:48:04;;;;;;;11.23;7.88;;;10.90;99.90;;;;;;5018768;28;20054;-60
2022/04/15 09:50:39;;;;;;;12.77;9.02;;;11.20;99.90;;;;;;5003487;28;20080;-57
2022/04/15 09:53:08;;;;;;;10.57;7.38;;;11.40;99.90;;;;;;5013808;28;20054;-59
2022/04/15 09:55:36;;;;;;;10.75;7.10;;;11.40;99.90;;;;;;5015253;28;20110;-59
2022/04/15 09:58:12;;;;;;;10.23;7.45;;;11.60;99.90;;;;;;5016383;28;20058;-58
2022/04/15 10:00:40;;;;;;;10.63;6.82;;;11.60;99.90;;;;;;4995704;28;20053;-59
2022/04/15 10:03:11;;;;;;;11.35;6.80;;;11.60;99.90;;;;;;5011559;28;20049;-59
2022/04/15 10:05:41;;;;;;;14.93;7.63;;;11.80;99.90;;;;;;5013903;28;20064;-59
2022/04/15 10:08:09;;;;;;;9.68;6.80;;;11.90;99.90;;;;;;4980316;28;20049;-59
2022/04/15 10:10:35;;;;;;;9.90;6.32;;;12.10;99.90;;;;;;4994190;28;20571;-59
2022/04/15 10:13:04;;;;;;;11.40;7.78;;;12.10;99.90;;;;;;5012767;28;20041;-59
2022/04/15 10:15:31;;;;;;;10.05;6.75;;;12.40;99.90;;;;;;5007260;28;20045;-57
2022/04/15 10:18:01;;;;;;;8.25;6.25;;;12.30;99.90;;;;;;5008518;28;20046;-57
2022/04/15 10:20:29;;;;;;;9.07;5.72;;;12.50;99.90;;;;;;5000729;28;20042;-57
2022/04/15 10:23:03;;;;;;;9.70;6.72;;;12.50;99.90;;;;;;5019584;28;20056;-58
2022/04/15 10:25:30;;;;;;;18.05;13.85;;;12.50;99.90;;;;;;5012206;28;20053;-59
2022/04/15 10:28:07;;;;;;;8.27;5.80;;;12.60;99.90;;;;;;5010419;28;20050;-58
2022/04/15 10:30:33;;;;;;;11.23;8.50;;;12.80;99.90;;;;;;5009739;28;20049;-58
2022/04/15 10:32:59;;;;;;;10.52;7.90;;;12.80;99.90;;;;;;4989022;28;20125;-59
2022/04/15 10:35:28;;;;;;;10.07;6.47;;;12.90;99.90;;;;;;5010153;28;20240;-58
2022/04/15 10:37:56;;;;;;;14.13;10.95;;;12.90;99.90;;;;;;5029926;28;20045;-60
2022/04/15 10:40:32;;;;;;;10.18;6.22;;;12.90;99.90;;;;;;5017023;28;20053;-58
2022/04/15 10:43:22;;;;;;;11.38;7.13;;;12.90;99.90;;;;;;5012756;28;20370;-58
2022/04/15 10:45:51;;;;;;;9.02;6.28;;;12.80;99.90;;;;;;5009610;28;20120;-59
2022/04/15 10:48:32;;;;;;;9.10;6.03;;;12.70;99.90;;;;;;5016128;28;20115;-58
2022/04/15 10:51:23;;;;;;;10.02;5.93;;;12.80;99.90;;;;;;5009607;28;20508;-59
2022/04/15 10:53:49;;;;;;;9.45;7.43;;;13.00;99.90;;;;;;5027069;28;20061;-59
2022/04/15 10:56:18;;;;;;;9.18;6.70;;;12.80;99.90;;;;;;4993766;28;20046;-58
2022/04/15 11:01:51;;;;;;;10.38;7.57;;;12.90;99.90;;;;;;5030747;28;20515;-57
2022/04/15 11:04:23;;;;;;;9.43;7.65;;;12.80;99.90;;;;;;5013148;28;20046;-59
2022/04/15 11:06:51;;;;;;;9.10;6.60;;;12.80;99.90;;;;;;5015868;28;21041;-59
2022/04/15 11:09:21;;;;;;;8.85;6.15;;;12.90;99.90;;;;;;5015832;28;20053;-57
2022/04/15 11:11:51;;;;;;;8.02;6.30;;;12.80;99.90;;;;;;5016584;28;20046;-57
2022/04/15 11:14:17;;;;;;;14.95;10.27;;;12.70;99.90;;;;;;5010629;28;20077;-57
2022/04/15 11:16:50;;;;;;;9.50;6.53;;;12.80;99.90;;;;;;5009258;28;20339;-58
2022/04/15 11:19:26;;;;;;;11.35;7.38;;;12.70;99.90;;;;;;5011680;28;20484;-58
2022/04/15 11:21:54;;;;;;;12.30;7.10;;;12.60;99.90;;;;;;5012744;28;20076;-58
2022/04/15 11:24:28;;;;;;;9.20;6.80;;;12.80;99.90;;;;;;5007496;28;20128;-59
2022/04/15 11:27:03;;;;;;;8.52;6.40;;;12.70;99.90;;;;;;5008896;28;20060;-59
2022/04/15 11:29:34;;;;;;;9.48;7.38;;;12.80;99.90;;;;;;5009538;28;20053;-58
2022/04/15 11:32:07;;;;;;;8.20;6.55;;;12.90;99.90;;;;;;5009197;28;20084;-58
2022/04/15 11:34:34;;;;;;;14.35;9.98;;;12.90;99.90;;;;;;5009703;28;20050;-58
2022/04/15 11:37:02;;;;;;;8.98;6.95;;;13.00;99.90;;;;;;4992335;28;20782;-59
2022/04/15 11:39:29;;;;;;;10.13;7.50;;;13.00;99.90;;;;;;5011621;28;20700;-58
2022/04/15 11:41:59;;;;;;;10.50;7.88;;;13.10;99.90;;;;;;5004062;28;20100;-59
2022/04/15 11:44:31;;;;;;;8.90;7.70;;;13.00;99.90;;;;;;4994105;28;20463;-60
2022/04/15 11:47:16;;;;;;;;;;;12.90;99.90;;;;;;5014062;28;20049;-61
2022/04/15 11:49:43;;;;;;;11.30;9.00;;;12.90;99.90;;;;;;5012781;28;19932;-60
2022/04/15 11:52:09;;;;;;;10.65;7.60;;;13.00;99.90;;;;;;4991898;28;20080;-60
2022/04/15 11:54:40;;;;;;;10.55;7.82;;;12.90;99.90;;;;;;5010419;28;20292;-59
2022/04/15 11:57:06;;;;;;;10.15;8.95;;;13.10;99.90;;;;;;5025182;28;20057;-60
2022/04/15 11:59:41;;;;;;;11.02;8.65;;;13.00;99.90;;;;;;5009362;28;20041;-59
2022/04/15 12:02:07;;;;;;;13.88;7.47;;;13.10;99.90;;;;;;5010506;28;20049;-60
2022/04/15 12:04:34;;;;;;;12.57;10.30;;;13.00;99.90;;;;;;5007584;28;20041;-60
2022/04/15 12:07:00;;;;;;;9.43;7.72;;;13.20;99.90;;;;;;5010891;28;20057;-60
2022/04/15 12:09:27;;;;;;;10.43;8.73;;;13.20;99.90;;;;;;5010872;28;20641;-60
2022/04/15 12:11:53;;;;;;;10.98;8.57;;;13.30;99.90;;;;;;4999939;28;20053;-60
2022/04/15 12:14:19;;;;;;;72.72;65.32;;;13.20;99.90;;;;;;5014060;28;20053;-56
2022/04/15 12:16:49;;;;;;;11.98;10.77;;;13.20;99.90;;;;;;5015525;28;20416;-57
2022/04/15 12:19:16;;;;;;;12.15;9.05;;;13.30;99.90;;;;;;5011971;28;20049;-56
2022/04/15 12:21:43;;;;;;;8.60;7.03;;;13.20;99.90;;;;;;5011129;28;20045;-55
2022/04/15 12:24:13;;;;;;;8.23;6.07;;;13.20;99.90;;;;;;5000657;28;20064;-56
2022/04/15 12:26:49;;;;;;;13.63;9.68;;;13.20;99.90;;;;;;5003011;28;20187;-56
2022/04/15 12:32:16;;;;;;;10.40;7.63;;;13.00;99.90;;;;;;5012924;28;20053;-55
2022/04/15 12:34:45;;;;;;;14.63;10.52;;;12.90;99.90;;;;;;5011785;28;20048;-55
2022/04/15 12:37:50;;;;;;;8.55;7.07;;;13.00;99.90;;;;;;5004527;28;20054;-55
2022/04/15 12:40:22;;;;;;;8.63;6.53;;;13.10;99.90;;;;;;5018218;28;20145;-56
2022/04/15 12:42:50;;;;;;;8.40;6.60;;;12.90;99.90;;;;;;5015104;28;20124;-55
2022/04/15 12:45:21;;;;;;;7.57;6.32;;;12.90;99.90;;;;;;5013876;28;20048;-55
2022/04/15 12:48:05;;;;;;;9.57;6.32;;;12.80;99.90;;;;;;5018691;28;20056;-55
2022/04/15 12:50:35;;;;;;;8.15;7.00;;;12.80;99.90;;;;;;5009965;28;20591;-55